sensor_id;sensor_type;location;lat;lon;timestamp;P1;durP1;ratioP1;P2;durP2;ratioP2
6834;SDS011;3455;42.150;24.734;2022-11-04T00:01:13;19.73;;;12.27;;
6834;SDS011;3455;42.150;24.734;2022-11-04T00:03:40;13.63;;;10.57;;
6834;SDS011;3455;42.150;24.734;2022-11-04T00:06:07;16.00;;;11.60;;
6834;SDS011;3455;42.150;24.734;2022-11-04T00:08:34;16.70;;;12.40;;
6834;SDS011;3455;42.150;24.734;2022-11-04T00:11:03;15.20;;;12.50;;
6834;SDS011;3455;42.150;24.734;2022-11-04T00:13:47;17.93;;;13.97;;
6834;SDS011;3455;42.150;24.734;2022-11-04T00:16:13;26.40;;;16.30;;
6834;SDS011;3455;42.150;24.734;2022-11-04T00:18:58;25.63;;;17.07;;
6834;SDS011;3455;42.150;24.734;2022-11-04T00:21:25;24.30;;;17.67;;
6834;SDS011;3455;42.150;24.734;2022-11-04T00:24:10;27.20;;;16.33;;
6834;SDS011;3455;42.150;24.734;2022-11-04T00:27:11;21.07;;;13.87;;
6834;SDS011;3455;42.150;24.734;2022-11-04T00:29:57;23.00;;;15.73;;
6834;SDS011;3455;42.150;24.734;2022-11-04T00:32:24;24.80;;;16.00;;
6834;SDS011;3455;42.150;24.734;2022-11-04T00:35:08;22.13;;;15.10;;
6834;SDS011;3455;42.150;24.734;2022-11-04T00:37:36;26.97;;;15.10;;
6834;SDS011;3455;42.150;24.734;2022-11-04T00:40:05;25.70;;;17.77;;
6834;SDS011;3455;42.150;24.734;2022-11-04T00:42:34;27.87;;;18.13;;
6834;SDS011;3455;42.150;24.734;2022-11-04T00:45:01;29.63;;;17.83;;
6834;SDS011;3455;42.150;24.734;2022-11-04T00:47:27;29.17;;;18.90;;
6834;SDS011;3455;42.150;24.734;2022-11-04T00:49:54;38.10;;;20.87;;
6834;SDS011;3455;42.150;24.734;2022-11-04T00:52:21;32.27;;;20.57;;
6834;SDS011;3455;42.150;24.734;2022-11-04T00:54:48;33.00;;;20.17;;
6834;SDS011;3455;42.150;24.734;2022-11-04T00:57:15;32.50;;;20.10;;
6834;SDS011;3455;42.150;24.734;2022-11-04T00:59:43;27.10;;;19.83;;
6834;SDS011;3455;42.150;24.734;2022-11-04T01:02:10;34.17;;;20.47;;
6834;SDS011;3455;42.150;24.734;2022-11-04T01:04:38;38.70;;;21.93;;
6834;SDS011;3455;42.150;24.734;2022-11-04T01:07:04;37.83;;;22.10;;
6834;SDS011;3455;42.150;24.734;2022-11-04T01:09:31;36.67;;;22.43;;
6834;SDS011;3455;42.150;24.734;2022-11-04T01:11:58;38.10;;;23.00;;
6834;SDS011;3455;42.150;24.734;2022-11-04T01:14:25;35.67;;;22.23;;
6834;SDS011;3455;42.150;24.734;2022-11-04T01:16:53;36.13;;;22.37;;
6834;SDS011;3455;42.150;24.734;2022-11-04T01:19:20;34.17;;;21.43;;
6834;SDS011;3455;42.150;24.734;2022-11-04T01:21:49;35.53;;;19.10;;
6834;SDS011;3455;42.150;24.734;2022-11-04T01:24:16;37.67;;;19.87;;
6834;SDS011;3455;42.150;24.734;2022-11-04T01:26:43;30.17;;;19.60;;
6834;SDS011;3455;42.150;24.734;2022-11-04T01:29:10;27.83;;;19.00;;
6834;SDS011;3455;42.150;24.734;2022-11-04T01:31:37;29.80;;;19.10;;
6834;SDS011;3455;42.150;24.734;2022-11-04T01:34:06;33.30;;;18.17;;
6834;SDS011;3455;42.150;24.734;2022-11-04T01:36:32;24.33;;;17.20;;
6834;SDS011;3455;42.150;24.734;2022-11-04T01:38:59;25.83;;;15.63;;
6834;SDS011;3455;42.150;24.734;2022-11-04T01:41:26;21.77;;;15.47;;
6834;SDS011;3455;42.150;24.734;2022-11-04T01:43:55;24.93;;;16.10;;
6834;SDS011;3455;42.150;24.734;2022-11-04T01:46:25;25.80;;;17.67;;
6834;SDS011;3455;42.150;24.734;2022-11-04T01:48:56;27.10;;;17.03;;
6834;SDS011;3455;42.150;24.734;2022-11-04T01:51:28;25.90;;;17.23;;
6834;SDS011;3455;42.150;24.734;2022-11-04T01:53:57;26.67;;;16.47;;
6834;SDS011;3455;42.150;24.734;2022-11-04T01:56:24;26.03;;;17.27;;
6834;SDS011;3455;42.150;24.734;2022-11-04T01:58:53;24.80;;;16.60;;
6834;SDS011;3455;42.150;24.734;2022-11-04T02:01:27;29.00;;;17.50;;
6834;SDS011;3455;42.150;24.734;2022-11-04T02:03:55;28.93;;;17.50;;
6834;SDS011;3455;42.150;24.734;2022-11-04T02:06:46;25.60;;;17.27;;
6834;SDS011;3455;42.150;24.734;2022-11-04T02:09:14;29.03;;;18.50;;
6834;SDS011;3455;42.150;24.734;2022-11-04T02:11:43;26.47;;;16.67;;
6834;SDS011;3455;42.150;24.734;2022-11-04T02:14:28;19.17;;;15.53;;
6834;SDS011;3455;42.150;24.734;2022-11-04T02:16:58;21.77;;;15.97;;
6834;SDS011;3455;42.150;24.734;2022-11-04T02:19:38;25.20;;;17.27;;
6834;SDS011;3455;42.150;24.734;2022-11-04T02:22:32;24.00;;;15.67;;
6834;SDS011;3455;42.150;24.734;2022-11-04T02:25:22;21.27;;;15.17;;
6834;SDS011;3455;42.150;24.734;2022-11-04T02:28:11;20.27;;;15.23;;
6834;SDS011;3455;42.150;24.734;2022-11-04T02:30:57;25.50;;;15.03;;
6834;SDS011;3455;42.150;24.734;2022-11-04T02:33:32;24.93;;;15.63;;
6834;SDS011;3455;42.150;24.734;2022-11-04T02:36:08;22.33;;;15.63;;
6834;SDS011;3455;42.150;24.734;2022-11-04T02:38:43;19.00;;;15.07;;
6834;SDS011;3455;42.150;24.734;2022-11-04T02:41:19;26.33;;;16.07;;
6834;SDS011;3455;42.150;24.734;2022-11-04T02:44:03;29.87;;;17.30;;
6834;SDS011;3455;42.150;24.734;2022-11-04T02:46:42;26.10;;;17.07;;
6834;SDS011;3455;42.150;24.734;2022-11-04T02:49:15;22.50;;;17.00;;
6834;SDS011;3455;42.150;24.734;2022-11-04T02:51:47;25.50;;;16.17;;
6834;SDS011;3455;42.150;24.734;2022-11-04T02:54:19;25.57;;;16.23;;
6834;SDS011;3455;42.150;24.734;2022-11-04T02:56:51;23.07;;;17.27;;
6834;SDS011;3455;42.150;24.734;2022-11-04T02:59:22;26.80;;;17.80;;
6834;SDS011;3455;42.150;24.734;2022-11-04T03:01:54;27.57;;;16.93;;
6834;SDS011;3455;42.150;24.734;2022-11-04T03:04:24;26.50;;;19.17;;
6834;SDS011;3455;42.150;24.734;2022-11-04T03:06:56;27.40;;;18.70;;
6834;SDS011;3455;42.150;24.734;2022-11-04T03:09:26;30.50;;;19.50;;
6834;SDS011;3455;42.150;24.734;2022-11-04T03:11:56;23.27;;;18.60;;
6834;SDS011;3455;42.150;24.734;2022-11-04T03:14:28;23.50;;;17.90;;
6834;SDS011;3455;42.150;24.734;2022-11-04T03:17:03;29.53;;;19.53;;
6834;SDS011;3455;42.150;24.734;2022-11-04T03:19:37;32.90;;;20.90;;
6834;SDS011;3455;42.150;24.734;2022-11-04T03:22:08;37.53;;;19.83;;
6834;SDS011;3455;42.150;24.734;2022-11-04T03:24:38;31.33;;;20.87;;
6834;SDS011;3455;42.150;24.734;2022-11-04T03:27:06;30.33;;;19.73;;
6834;SDS011;3455;42.150;24.734;2022-11-04T03:29:42;30.03;;;20.40;;
6834;SDS011;3455;42.150;24.734;2022-11-04T03:32:18;32.03;;;21.00;;
6834;SDS011;3455;42.150;24.734;2022-11-04T03:34:49;29.63;;;19.87;;
6834;SDS011;3455;42.150;24.734;2022-11-04T03:37:17;28.93;;;20.17;;
6834;SDS011;3455;42.150;24.734;2022-11-04T03:39:44;30.40;;;19.27;;
6834;SDS011;3455;42.150;24.734;2022-11-04T03:42:11;29.27;;;20.33;;
6834;SDS011;3455;42.150;24.734;2022-11-04T03:44:48;27.67;;;20.30;;
6834;SDS011;3455;42.150;24.734;2022-11-04T03:47:18;28.20;;;20.93;;
6834;SDS011;3455;42.150;24.734;2022-11-04T03:49:47;31.93;;;20.57;;
6834;SDS011;3455;42.150;24.734;2022-11-04T03:52:16;32.77;;;21.40;;
6834;SDS011;3455;42.150;24.734;2022-11-04T03:54:44;36.93;;;22.03;;
6834;SDS011;3455;42.150;24.734;2022-11-04T03:57:22;31.97;;;21.57;;
6834;SDS011;3455;42.150;24.734;2022-11-04T04:00:04;38.20;;;22.13;;
6834;SDS011;3455;42.150;24.734;2022-11-04T04:05:33;37.90;;;20.90;;
6834;SDS011;3455;42.150;24.734;2022-11-04T04:08:10;40.13;;;22.23;;
6834;SDS011;3455;42.150;24.734;2022-11-04T04:10:44;27.93;;;21.00;;
6834;SDS011;3455;42.150;24.734;2022-11-04T04:13:19;30.23;;;21.40;;
6834;SDS011;3455;42.150;24.734;2022-11-04T04:15:54;32.70;;;20.77;;
6834;SDS011;3455;42.150;24.734;2022-11-04T04:18:28;25.33;;;17.30;;
6834;SDS011;3455;42.150;24.734;2022-11-04T04:20:59;22.90;;;18.60;;
6834;SDS011;3455;42.150;24.734;2022-11-04T04:23:30;34.30;;;19.43;;
6834;SDS011;3455;42.150;24.734;2022-11-04T04:26:18;28.93;;;19.30;;
6834;SDS011;3455;42.150;24.734;2022-11-04T04:29:19;34.37;;;19.73;;
6834;SDS011;3455;42.150;24.734;2022-11-04T04:31:47;27.23;;;17.73;;
6834;SDS011;3455;42.150;24.734;2022-11-04T04:34:16;24.40;;;19.03;;
6834;SDS011;3455;42.150;24.734;2022-11-04T04:36:45;32.50;;;19.53;;
6834;SDS011;3455;42.150;24.734;2022-11-04T04:39:17;34.40;;;18.90;;
6834;SDS011;3455;42.150;24.734;2022-11-04T04:42:05;33.03;;;20.40;;
6834;SDS011;3455;42.150;24.734;2022-11-04T04:44:50;33.13;;;20.77;;
6834;SDS011;3455;42.150;24.734;2022-11-04T04:47:27;30.53;;;20.47;;
6834;SDS011;3455;42.150;24.734;2022-11-04T04:50:00;33.43;;;20.07;;
6834;SDS011;3455;42.150;24.734;2022-11-04T04:52:29;33.23;;;19.20;;
6834;SDS011;3455;42.150;24.734;2022-11-04T04:54:57;29.33;;;19.80;;
6834;SDS011;3455;42.150;24.734;2022-11-04T04:57:24;29.77;;;20.60;;
6834;SDS011;3455;42.150;24.734;2022-11-04T04:59:51;29.67;;;19.70;;
6834;SDS011;3455;42.150;24.734;2022-11-04T05:02:18;30.13;;;20.07;;
6834;SDS011;3455;42.150;24.734;2022-11-04T05:04:44;32.40;;;20.07;;
6834;SDS011;3455;42.150;24.734;2022-11-04T05:07:13;28.47;;;19.13;;
6834;SDS011;3455;42.150;24.734;2022-11-04T05:09:39;27.80;;;18.87;;
6834;SDS011;3455;42.150;24.734;2022-11-04T05:12:06;28.77;;;19.50;;
6834;SDS011;3455;42.150;24.734;2022-11-04T05:14:34;26.73;;;18.37;;
6834;SDS011;3455;42.150;24.734;2022-11-04T05:17:00;24.37;;;17.13;;
6834;SDS011;3455;42.150;24.734;2022-11-04T05:19:27;24.37;;;17.20;;
6834;SDS011;3455;42.150;24.734;2022-11-04T05:21:54;26.10;;;17.93;;
6834;SDS011;3455;42.150;24.734;2022-11-04T05:24:22;26.50;;;17.70;;
6834;SDS011;3455;42.150;24.734;2022-11-04T05:26:49;27.27;;;17.30;;
6834;SDS011;3455;42.150;24.734;2022-11-04T05:29:16;28.10;;;17.17;;
6834;SDS011;3455;42.150;24.734;2022-11-04T05:31:43;28.67;;;16.70;;
6834;SDS011;3455;42.150;24.734;2022-11-04T05:34:10;23.93;;;17.07;;
6834;SDS011;3455;42.150;24.734;2022-11-04T05:36:38;21.50;;;17.20;;
6834;SDS011;3455;42.150;24.734;2022-11-04T05:39:05;31.60;;;17.77;;
6834;SDS011;3455;42.150;24.734;2022-11-04T05:41:34;24.17;;;16.63;;
6834;SDS011;3455;42.150;24.734;2022-11-04T05:44:02;29.87;;;17.10;;
6834;SDS011;3455;42.150;24.734;2022-11-04T05:46:30;34.03;;;18.77;;
6834;SDS011;3455;42.150;24.734;2022-11-04T05:48:57;29.70;;;18.23;;
6834;SDS011;3455;42.150;24.734;2022-11-04T05:51:24;36.13;;;18.43;;
6834;SDS011;3455;42.150;24.734;2022-11-04T05:53:52;29.97;;;17.43;;
6834;SDS011;3455;42.150;24.734;2022-11-04T05:56:19;33.30;;;17.97;;
6834;SDS011;3455;42.150;24.734;2022-11-04T05:58:48;30.43;;;16.57;;
6834;SDS011;3455;42.150;24.734;2022-11-04T06:01:28;25.67;;;17.60;;
6834;SDS011;3455;42.150;24.734;2022-11-04T06:03:56;20.67;;;16.03;;
6834;SDS011;3455;42.150;24.734;2022-11-04T06:06:25;19.67;;;16.03;;
6834;SDS011;3455;42.150;24.734;2022-11-04T06:08:55;26.40;;;15.97;;
6834;SDS011;3455;42.150;24.734;2022-11-04T06:11:22;25.17;;;15.37;;
6834;SDS011;3455;42.150;24.734;2022-11-04T06:13:52;24.10;;;15.57;;
6834;SDS011;3455;42.150;24.734;2022-11-04T06:16:19;22.00;;;15.50;;
6834;SDS011;3455;42.150;24.734;2022-11-04T06:18:46;23.37;;;15.57;;
6834;SDS011;3455;42.150;24.734;2022-11-04T06:21:20;19.37;;;15.17;;
6834;SDS011;3455;42.150;24.734;2022-11-04T06:23:49;28.97;;;16.00;;
6834;SDS011;3455;42.150;24.734;2022-11-04T06:26:17;25.00;;;15.77;;
6834;SDS011;3455;42.150;24.734;2022-11-04T06:28:43;22.77;;;15.57;;
6834;SDS011;3455;42.150;24.734;2022-11-04T06:31:12;26.83;;;15.73;;
6834;SDS011;3455;42.150;24.734;2022-11-04T06:33:39;20.20;;;15.00;;
6834;SDS011;3455;42.150;24.734;2022-11-04T06:36:07;19.03;;;15.87;;
6834;SDS011;3455;42.150;24.734;2022-11-04T06:38:36;23.23;;;14.90;;
6834;SDS011;3455;42.150;24.734;2022-11-04T06:41:04;19.00;;;15.17;;
6834;SDS011;3455;42.150;24.734;2022-11-04T06:43:31;23.17;;;15.30;;
6834;SDS011;3455;42.150;24.734;2022-11-04T06:45:59;23.60;;;15.63;;
6834;SDS011;3455;42.150;24.734;2022-11-04T06:48:28;24.40;;;15.37;;
6834;SDS011;3455;42.150;24.734;2022-11-04T06:50:55;30.47;;;17.60;;
6834;SDS011;3455;42.150;24.734;2022-11-04T06:53:23;28.70;;;16.33;;
6834;SDS011;3455;42.150;24.734;2022-11-04T06:55:50;22.77;;;16.90;;
6834;SDS011;3455;42.150;24.734;2022-11-04T06:58:17;32.03;;;17.60;;
6834;SDS011;3455;42.150;24.734;2022-11-04T07:00:48;135.97;;;29.13;;
6834;SDS011;3455;42.150;24.734;2022-11-04T07:03:16;33.87;;;18.10;;
6834;SDS011;3455;42.150;24.734;2022-11-04T07:05:44;37.90;;;17.20;;
6834;SDS011;3455;42.150;24.734;2022-11-04T07:08:10;38.10;;;17.33;;
6834;SDS011;3455;42.150;24.734;2022-11-04T07:10:37;35.30;;;18.20;;
6834;SDS011;3455;42.150;24.734;2022-11-04T07:13:04;38.17;;;18.47;;
6834;SDS011;3455;42.150;24.734;2022-11-04T07:15:30;33.07;;;18.73;;
6834;SDS011;3455;42.150;24.734;2022-11-04T07:17:57;53.13;;;18.17;;
6834;SDS011;3455;42.150;24.734;2022-11-04T07:20:24;42.20;;;19.63;;
6834;SDS011;3455;42.150;24.734;2022-11-04T07:22:54;32.93;;;18.13;;
6834;SDS011;3455;42.150;24.734;2022-11-04T07:25:21;34.37;;;18.27;;
6834;SDS011;3455;42.150;24.734;2022-11-04T07:27:48;31.37;;;18.37;;
6834;SDS011;3455;42.150;24.734;2022-11-04T07:30:14;45.40;;;19.20;;
6834;SDS011;3455;42.150;24.734;2022-11-04T07:32:43;26.27;;;18.23;;
6834;SDS011;3455;42.150;24.734;2022-11-04T07:35:09;39.40;;;20.50;;
6834;SDS011;3455;42.150;24.734;2022-11-04T07:37:36;36.43;;;18.83;;
6834;SDS011;3455;42.150;24.734;2022-11-04T07:40:04;29.23;;;19.83;;
6834;SDS011;3455;42.150;24.734;2022-11-04T07:42:32;32.00;;;18.10;;
6834;SDS011;3455;42.150;24.734;2022-11-04T07:44:58;25.33;;;17.20;;
6834;SDS011;3455;42.150;24.734;2022-11-04T07:47:27;34.73;;;18.87;;
6834;SDS011;3455;42.150;24.734;2022-11-04T07:49:54;45.10;;;19.67;;
6834;SDS011;3455;42.150;24.734;2022-11-04T07:52:21;33.97;;;18.33;;
6834;SDS011;3455;42.150;24.734;2022-11-04T07:54:48;46.07;;;18.57;;
6834;SDS011;3455;42.150;24.734;2022-11-04T07:57:16;57.80;;;20.03;;
6834;SDS011;3455;42.150;24.734;2022-11-04T07:59:43;39.77;;;18.33;;
6834;SDS011;3455;42.150;24.734;2022-11-04T08:02:10;26.87;;;18.67;;
6834;SDS011;3455;42.150;24.734;2022-11-04T08:04:37;40.10;;;18.43;;
6834;SDS011;3455;42.150;24.734;2022-11-04T08:07:06;36.90;;;19.13;;
6834;SDS011;3455;42.150;24.734;2022-11-04T08:09:33;31.37;;;18.43;;
6834;SDS011;3455;42.150;24.734;2022-11-04T08:12:01;28.80;;;19.83;;
6834;SDS011;3455;42.150;24.734;2022-11-04T08:14:30;29.60;;;20.70;;
6834;SDS011;3455;42.150;24.734;2022-11-04T08:16:57;33.17;;;18.90;;
6834;SDS011;3455;42.150;24.734;2022-11-04T08:19:24;33.40;;;18.83;;
6834;SDS011;3455;42.150;24.734;2022-11-04T08:21:50;57.93;;;20.60;;
6834;SDS011;3455;42.150;24.734;2022-11-04T08:24:17;32.67;;;19.10;;
6834;SDS011;3455;42.150;24.734;2022-11-04T08:26:44;30.97;;;19.37;;
6834;SDS011;3455;42.150;24.734;2022-11-04T08:29:11;28.87;;;18.80;;
6834;SDS011;3455;42.150;24.734;2022-11-04T08:31:39;34.80;;;20.47;;
6834;SDS011;3455;42.150;24.734;2022-11-04T08:34:06;28.83;;;18.83;;
6834;SDS011;3455;42.150;24.734;2022-11-04T08:36:35;35.93;;;19.23;;
6834;SDS011;3455;42.150;24.734;2022-11-04T08:39:03;32.87;;;19.97;;
6834;SDS011;3455;42.150;24.734;2022-11-04T08:41:31;30.97;;;19.23;;
6834;SDS011;3455;42.150;24.734;2022-11-04T08:43:58;35.93;;;20.10;;
6834;SDS011;3455;42.150;24.734;2022-11-04T08:46:28;36.57;;;20.87;;
6834;SDS011;3455;42.150;24.734;2022-11-04T08:48:59;33.47;;;20.13;;
6834;SDS011;3455;42.150;24.734;2022-11-04T08:51:26;31.80;;;20.47;;
6834;SDS011;3455;42.150;24.734;2022-11-04T08:53:53;29.60;;;19.87;;
6834;SDS011;3455;42.150;24.734;2022-11-04T08:56:21;35.35;;;20.15;;
6834;SDS011;3455;42.150;24.734;2022-11-04T08:58:49;32.83;;;19.77;;
6834;SDS011;3455;42.150;24.734;2022-11-04T09:01:16;33.10;;;20.43;;
6834;SDS011;3455;42.150;24.734;2022-11-04T09:03:43;27.23;;;19.23;;
6834;SDS011;3455;42.150;24.734;2022-11-04T09:06:12;35.10;;;19.10;;
6834;SDS011;3455;42.150;24.734;2022-11-04T09:08:40;28.50;;;18.50;;
6834;SDS011;3455;42.150;24.734;2022-11-04T09:11:08;36.95;;;18.60;;
6834;SDS011;3455;42.150;24.734;2022-11-04T09:13:37;30.75;;;21.13;;
6834;SDS011;3455;42.150;24.734;2022-11-04T09:16:05;33.28;;;20.38;;
6834;SDS011;3455;42.150;24.734;2022-11-04T09:18:33;30.13;;;20.05;;
6834;SDS011;3455;42.150;24.734;2022-11-04T09:21:00;25.83;;;19.70;;
6834;SDS011;3455;42.150;24.734;2022-11-04T09:23:29;36.47;;;20.05;;
6834;SDS011;3455;42.150;24.734;2022-11-04T09:25:56;25.60;;;19.08;;
6834;SDS011;3455;42.150;24.734;2022-11-04T09:28:23;30.27;;;19.50;;
6834;SDS011;3455;42.150;24.734;2022-11-04T09:30:50;23.23;;;19.85;;
6834;SDS011;3455;42.150;24.734;2022-11-04T09:33:17;23.70;;;19.67;;
6834;SDS011;3455;42.150;24.734;2022-11-04T09:35:52;24.60;;;20.02;;
6834;SDS011;3455;42.150;24.734;2022-11-04T09:38:20;26.80;;;19.92;;
6834;SDS011;3455;42.150;24.734;2022-11-04T09:40:48;30.50;;;19.48;;
6834;SDS011;3455;42.150;24.734;2022-11-04T09:43:19;47.67;;;19.70;;
6834;SDS011;3455;42.150;24.734;2022-11-04T09:45:53;24.90;;;18.33;;
6834;SDS011;3455;42.150;24.734;2022-11-04T09:48:23;24.33;;;18.88;;
6834;SDS011;3455;42.150;24.734;2022-11-04T09:50:54;26.15;;;19.88;;
6834;SDS011;3455;42.150;24.734;2022-11-04T09:53:26;23.73;;;19.13;;
6834;SDS011;3455;42.150;24.734;2022-11-04T09:55:59;22.95;;;18.08;;
6834;SDS011;3455;42.150;24.734;2022-11-04T09:58:28;23.67;;;18.73;;
6834;SDS011;3455;42.150;24.734;2022-11-04T10:01:04;20.00;;;17.70;;
6834;SDS011;3455;42.150;24.734;2022-11-04T10:03:40;21.83;;;18.00;;
6834;SDS011;3455;42.150;24.734;2022-11-04T10:06:26;22.48;;;19.02;;
6834;SDS011;3455;42.150;24.734;2022-11-04T10:09:02;22.58;;;18.80;;
6834;SDS011;3455;42.150;24.734;2022-11-04T10:11:50;24.30;;;19.45;;
6834;SDS011;3455;42.150;24.734;2022-11-04T10:14:37;25.27;;;19.30;;
6834;SDS011;3455;42.150;24.734;2022-11-04T10:17:20;19.15;;;17.27;;
6834;SDS011;3455;42.150;24.734;2022-11-04T10:19:58;20.05;;;18.15;;
6834;SDS011;3455;42.150;24.734;2022-11-04T10:22:38;25.33;;;18.85;;
6834;SDS011;3455;42.150;24.734;2022-11-04T10:25:15;38.53;;;19.25;;
6834;SDS011;3455;42.150;24.734;2022-11-04T10:27:49;22.73;;;16.75;;
6834;SDS011;3455;42.150;24.734;2022-11-04T10:30:18;23.58;;;17.70;;
6834;SDS011;3455;42.150;24.734;2022-11-04T10:32:50;18.55;;;16.65;;
6834;SDS011;3455;42.150;24.734;2022-11-04T10:35:26;22.90;;;17.42;;
6834;SDS011;3455;42.150;24.734;2022-11-04T10:37:57;26.70;;;18.67;;
6834;SDS011;3455;42.150;24.734;2022-11-04T10:40:37;22.67;;;18.40;;
6834;SDS011;3455;42.150;24.734;2022-11-04T10:43:08;19.30;;;17.33;;
6834;SDS011;3455;42.150;24.734;2022-11-04T10:45:40;21.02;;;18.85;;
6834;SDS011;3455;42.150;24.734;2022-11-04T10:48:15;22.15;;;16.88;;
6834;SDS011;3455;42.150;24.734;2022-11-04T10:50:51;20.52;;;17.13;;
6834;SDS011;3455;42.150;24.734;2022-11-04T10:53:21;28.70;;;18.75;;
6834;SDS011;3455;42.150;24.734;2022-11-04T10:55:51;23.65;;;18.13;;
6834;SDS011;3455;42.150;24.734;2022-11-04T10:58:26;27.33;;;18.17;;
6834;SDS011;3455;42.150;24.734;2022-11-04T11:00:56;20.65;;;18.00;;
6834;SDS011;3455;42.150;24.734;2022-11-04T11:03:25;48.72;;;19.73;;
6834;SDS011;3455;42.150;24.734;2022-11-04T11:06:08;21.42;;;16.50;;
6834;SDS011;3455;42.150;24.734;2022-11-04T11:08:38;19.45;;;17.40;;
6834;SDS011;3455;42.150;24.734;2022-11-04T11:11:05;22.88;;;18.20;;
6834;SDS011;3455;42.150;24.734;2022-11-04T11:13:35;26.08;;;19.95;;
6834;SDS011;3455;42.150;24.734;2022-11-04T11:16:05;21.33;;;18.73;;
6834;SDS011;3455;42.150;24.734;2022-11-04T11:18:34;38.85;;;18.80;;
6834;SDS011;3455;42.150;24.734;2022-11-04T11:21:04;20.33;;;18.23;;
6834;SDS011;3455;42.150;24.734;2022-11-04T11:23:40;37.92;;;18.70;;
6834;SDS011;3455;42.150;24.734;2022-11-04T11:26:10;35.10;;;19.00;;
6834;SDS011;3455;42.150;24.734;2022-11-04T11:28:40;25.55;;;19.25;;
6834;SDS011;3455;42.150;24.734;2022-11-04T11:31:14;39.63;;;18.20;;
6834;SDS011;3455;42.150;24.734;2022-11-04T11:33:48;23.00;;;18.38;;
6834;SDS011;3455;42.150;24.734;2022-11-04T11:36:18;21.02;;;18.02;;
6834;SDS011;3455;42.150;24.734;2022-11-04T11:38:52;22.75;;;18.20;;
6834;SDS011;3455;42.150;24.734;2022-11-04T11:41:30;23.60;;;17.48;;
6834;SDS011;3455;42.150;24.734;2022-11-04T11:44:01;44.60;;;19.08;;
6834;SDS011;3455;42.150;24.734;2022-11-04T11:46:32;21.35;;;18.55;;
6834;SDS011;3455;42.150;24.734;2022-11-04T11:49:02;24.63;;;18.27;;
6834;SDS011;3455;42.150;24.734;2022-11-04T11:51:32;20.30;;;17.98;;
6834;SDS011;3455;42.150;24.734;2022-11-04T11:54:07;20.58;;;17.80;;
6834;SDS011;3455;42.150;24.734;2022-11-04T11:56:41;21.85;;;17.63;;
6834;SDS011;3455;42.150;24.734;2022-11-04T11:59:15;20.80;;;17.02;;
6834;SDS011;3455;42.150;24.734;2022-11-04T12:01:49;19.70;;;16.70;;
6834;SDS011;3455;42.150;24.734;2022-11-04T12:04:24;34.03;;;18.88;;
6834;SDS011;3455;42.150;24.734;2022-11-04T12:06:53;29.52;;;18.17;;
6834;SDS011;3455;42.150;24.734;2022-11-04T12:09:29;25.95;;;16.88;;
6834;SDS011;3455;42.150;24.734;2022-11-04T12:12:04;24.08;;;16.75;;
6834;SDS011;3455;42.150;24.734;2022-11-04T12:14:48;20.48;;;17.63;;
6834;SDS011;3455;42.150;24.734;2022-11-04T12:17:26;24.25;;;17.25;;
6834;SDS011;3455;42.150;24.734;2022-11-04T12:20:08;34.90;;;19.08;;
6834;SDS011;3455;42.150;24.734;2022-11-04T12:22:49;31.60;;;17.05;;
6834;SDS011;3455;42.150;24.734;2022-11-04T12:25:23;22.20;;;17.95;;
6834;SDS011;3455;42.150;24.734;2022-11-04T12:27:58;25.85;;;16.35;;
6834;SDS011;3455;42.150;24.734;2022-11-04T12:30:36;18.10;;;16.08;;
6834;SDS011;3455;42.150;24.734;2022-11-04T12:33:16;21.35;;;16.10;;
6834;SDS011;3455;42.150;24.734;2022-11-04T12:35:55;22.00;;;17.45;;
6834;SDS011;3455;42.150;24.734;2022-11-04T12:41:41;20.63;;;16.65;;
6834;SDS011;3455;42.150;24.734;2022-11-04T12:44:21;29.40;;;16.95;;
6834;SDS011;3455;42.150;24.734;2022-11-04T12:46:58;22.85;;;17.08;;
6834;SDS011;3455;42.150;24.734;2022-11-04T12:49:42;28.38;;;17.60;;
6834;SDS011;3455;42.150;24.734;2022-11-04T12:52:23;37.65;;;18.27;;
6834;SDS011;3455;42.150;24.734;2022-11-04T12:55:05;27.38;;;17.55;;
6834;SDS011;3455;42.150;24.734;2022-11-04T12:57:46;26.88;;;16.08;;
6834;SDS011;3455;42.150;24.734;2022-11-04T13:00:19;72.82;;;21.55;;
6834;SDS011;3455;42.150;24.734;2022-11-04T13:02:51;27.65;;;16.85;;
6834;SDS011;3455;42.150;24.734;2022-11-04T13:05:29;21.10;;;16.65;;
6834;SDS011;3455;42.150;24.734;2022-11-04T13:08:02;25.73;;;16.75;;
6834;SDS011;3455;42.150;24.734;2022-11-04T13:10:38;26.83;;;19.55;;
6834;SDS011;3455;42.150;24.734;2022-11-04T13:13:07;19.95;;;16.98;;
6834;SDS011;3455;42.150;24.734;2022-11-04T13:15:39;29.27;;;17.70;;
6834;SDS011;3455;42.150;24.734;2022-11-04T13:18:14;28.17;;;17.25;;
6834;SDS011;3455;42.150;24.734;2022-11-04T13:20:44;22.25;;;16.58;;
6834;SDS011;3455;42.150;24.734;2022-11-04T13:23:18;25.13;;;15.80;;
6834;SDS011;3455;42.150;24.734;2022-11-04T13:25:49;23.98;;;17.23;;
6834;SDS011;3455;42.150;24.734;2022-11-04T13:28:18;21.23;;;17.48;;
6834;SDS011;3455;42.150;24.734;2022-11-04T13:30:49;22.48;;;17.42;;
6834;SDS011;3455;42.150;24.734;2022-11-04T13:33:22;25.45;;;17.35;;
6834;SDS011;3455;42.150;24.734;2022-11-04T13:35:58;28.13;;;17.02;;
6834;SDS011;3455;42.150;24.734;2022-11-04T13:38:33;23.90;;;17.27;;
6834;SDS011;3455;42.150;24.734;2022-11-04T13:41:15;34.03;;;17.42;;
6834;SDS011;3455;42.150;24.734;2022-11-04T13:43:57;29.80;;;18.20;;
6834;SDS011;3455;42.150;24.734;2022-11-04T13:46:27;34.20;;;17.42;;
6834;SDS011;3455;42.150;24.734;2022-11-04T13:48:58;23.80;;;17.00;;
6834;SDS011;3455;42.150;24.734;2022-11-04T13:51:35;25.45;;;16.73;;
6834;SDS011;3455;42.150;24.734;2022-11-04T13:54:05;33.55;;;18.17;;
6834;SDS011;3455;42.150;24.734;2022-11-04T13:56:33;35.08;;;18.10;;
6834;SDS011;3455;42.150;24.734;2022-11-04T13:59:04;30.98;;;17.73;;
6834;SDS011;3455;42.150;24.734;2022-11-04T14:01:45;40.38;;;18.17;;
6834;SDS011;3455;42.150;24.734;2022-11-04T14:04:25;22.85;;;17.05;;
6834;SDS011;3455;42.150;24.734;2022-11-04T14:06:56;29.45;;;18.00;;
6834;SDS011;3455;42.150;24.734;2022-11-04T14:12:17;28.00;;;17.60;;
6834;SDS011;3455;42.150;24.734;2022-11-04T14:14:57;31.13;;;18.73;;
6834;SDS011;3455;42.150;24.734;2022-11-04T14:18:01;30.30;;;17.70;;
6834;SDS011;3455;42.150;24.734;2022-11-04T14:20:32;27.75;;;19.13;;
6834;SDS011;3455;42.150;24.734;2022-11-04T14:23:01;27.05;;;19.33;;
6834;SDS011;3455;42.150;24.734;2022-11-04T14:25:31;32.58;;;18.33;;
6834;SDS011;3455;42.150;24.734;2022-11-04T14:28:01;30.33;;;18.58;;
6834;SDS011;3455;42.150;24.734;2022-11-04T14:30:43;34.60;;;20.50;;
6834;SDS011;3455;42.150;24.734;2022-11-04T14:33:21;35.33;;;19.20;;
6834;SDS011;3455;42.150;24.734;2022-11-04T14:36:11;29.40;;;19.17;;
6834;SDS011;3455;42.150;24.734;2022-11-04T14:38:41;24.83;;;18.43;;
6834;SDS011;3455;42.150;24.734;2022-11-04T14:41:19;25.55;;;18.30;;
6834;SDS011;3455;42.150;24.734;2022-11-04T14:43:48;31.83;;;19.87;;
6834;SDS011;3455;42.150;24.734;2022-11-04T14:46:19;28.30;;;19.03;;
6834;SDS011;3455;42.150;24.734;2022-11-04T14:48:49;31.23;;;19.70;;
6834;SDS011;3455;42.150;24.734;2022-11-04T14:51:22;30.10;;;18.77;;
6834;SDS011;3455;42.150;24.734;2022-11-04T14:53:53;32.97;;;20.17;;
6834;SDS011;3455;42.150;24.734;2022-11-04T14:56:27;34.50;;;19.50;;
6834;SDS011;3455;42.150;24.734;2022-11-04T14:58:54;27.80;;;18.30;;
6834;SDS011;3455;42.150;24.734;2022-11-04T15:01:23;35.37;;;20.20;;
6834;SDS011;3455;42.150;24.734;2022-11-04T15:03:51;30.73;;;20.70;;
6834;SDS011;3455;42.150;24.734;2022-11-04T15:06:25;39.10;;;20.57;;
6834;SDS011;3455;42.150;24.734;2022-11-04T15:08:53;37.77;;;20.53;;